sensor_id;sensor_type;location;lat;lon;timestamp;pressure;altitude;pressure_sealevel;temperature;humidity
69971;BME280;57301;50.328;8.542;2023-03-01T00:00:03;99603.66;;;-3.27;79.12
69971;BME280;57301;50.328;8.542;2023-03-01T00:02:30;99605.34;;;-3.26;79.90
69971;BME280;57301;50.328;8.542;2023-03-01T00:04:57;99604.75;;;-3.03;78.74
69971;BME280;57301;50.328;8.542;2023-03-01T00:07:23;99608.16;;;-3.01;77.93
69971;BME280;57301;50.328;8.542;2023-03-01T00:09:50;99606.94;;;-3.19;78.94
69971;BME280;57301;50.328;8.542;2023-03-01T00:12:16;99622.75;;;-3.25;79.77
69971;BME280;57301;50.328;8.542;2023-03-01T00:14:42;99613.59;;;-3.09;79.46
69971;BME280;57301;50.328;8.542;2023-03-01T00:17:09;99615.03;;;-2.97;78.42
69971;BME280;57301;50.328;8.542;2023-03-01T00:19:35;99612.22;;;-3.22;78.86
69971;BME280;57301;50.328;8.542;2023-03-01T00:22:02;99612.41;;;-3.30;79.66
69971;BME280;57301;50.328;8.542;2023-03-01T00:24:28;99607.16;;;-3.28;79.73
69971;BME280;57301;50.328;8.542;2023-03-01T00:26:55;99602.75;;;-3.26;79.95
69971;BME280;57301;50.328;8.542;2023-03-01T00:29:24;99607.69;;;-3.15;79.10
69971;BME280;57301;50.328;8.542;2023-03-01T00:31:51;99602.63;;;-3.21;79.18
69971;BME280;57301;50.328;8.542;2023-03-01T00:34:17;99607.81;;;-3.20;78.68
69971;BME280;57301;50.328;8.542;2023-03-01T00:36:44;99604.16;;;-3.13;78.75
69971;BME280;57301;50.328;8.542;2023-03-01T00:39:13;99594.22;;;-3.33;79.68
69971;BME280;57301;50.328;8.542;2023-03-01T00:41:41;99590.19;;;-3.43;80.37
69971;BME280;57301;50.328;8.542;2023-03-01T00:44:08;99590.78;;;-3.33;80.33
69971;BME280;57301;50.328;8.542;2023-03-01T00:46:34;99587.09;;;-3.25;79.63
69971;BME280;57301;50.328;8.542;2023-03-01T00:49:01;99588.19;;;-3.02;79.22
69971;BME280;57301;50.328;8.542;2023-03-01T00:51:29;99583.03;;;-3.04;78.42
69971;BME280;57301;50.328;8.542;2023-03-01T00:53:59;99586.94;;;-3.20;79.06
69971;BME280;57301;50.328;8.542;2023-03-01T00:56:26;99582.66;;;-3.22;78.85
69971;BME280;57301;50.328;8.542;2023-03-01T00:58:53;99585.19;;;-3.19;78.94
69971;BME280;57301;50.328;8.542;2023-03-01T01:01:23;99585.22;;;-3.21;78.89
69971;BME280;57301;50.328;8.542;2023-03-01T01:03:56;99576.25;;;-3.42;80.26
69971;BME280;57301;50.328;8.542;2023-03-01T01:06:28;99575.50;;;-3.47;80.67
69971;BME280;57301;50.328;8.542;2023-03-01T01:08:55;99568.84;;;-3.59;82.12
69971;BME280;57301;50.328;8.542;2023-03-01T01:11:24;99565.53;;;-3.33;81.59
69971;BME280;57301;50.328;8.542;2023-03-01T01:13:51;99552.84;;;-3.14;80.50
69971;BME280;57301;50.328;8.542;2023-03-01T01:16:19;99559.06;;;-3.18;80.03
69971;BME280;57301;50.328;8.542;2023-03-01T01:18:46;99560.06;;;-3.22;79.99
69971;BME280;57301;50.328;8.542;2023-03-01T01:21:16;99548.66;;;-3.19;79.82
69971;BME280;57301;50.328;8.542;2023-03-01T01:23:44;99548.66;;;-3.19;79.45
69971;BME280;57301;50.328;8.542;2023-03-01T01:26:13;99554.44;;;-3.08;79.56
69971;BME280;57301;50.328;8.542;2023-03-01T01:28:40;99552.97;;;-3.17;79.16
69971;BME280;57301;50.328;8.542;2023-03-01T01:31:07;99541.50;;;-3.11;79.57
69971;BME280;57301;50.328;8.542;2023-03-01T01:33:34;99537.88;;;-3.06;79.41
69971;BME280;57301;50.328;8.542;2023-03-01T01:36:00;99532.50;;;-3.01;78.88
69971;BME280;57301;50.328;8.542;2023-03-01T01:38:27;99533.69;;;-3.11;78.66
69971;BME280;57301;50.328;8.542;2023-03-01T01:40:53;99526.19;;;-3.23;79.38
69971;BME280;57301;50.328;8.542;2023-03-01T01:43:24;99535.50;;;-3.15;79.15
69971;BME280;57301;50.328;8.542;2023-03-01T01:45:55;99537.53;;;-3.25;79.34
69971;BME280;57301;50.328;8.542;2023-03-01T01:48:24;99542.66;;;-3.21;78.89
69971;BME280;57301;50.328;8.542;2023-03-01T01:51:11;99537.47;;;-3.23;79.58
69971;BME280;57301;50.328;8.542;2023-03-01T01:53:39;99542.69;;;-3.23;80.19
69971;BME280;57301;50.328;8.542;2023-03-01T01:56:08;99540.00;;;-3.20;79.37
69971;BME280;57301;50.328;8.542;2023-03-01T01:58:37;99541.50;;;-3.11;79.10
69971;BME280;57301;50.328;8.542;2023-03-01T02:01:05;99545.25;;;-3.21;79.34
69971;BME280;57301;50.328;8.542;2023-03-01T02:03:33;99552.25;;;-3.55;80.83
69971;BME280;57301;50.328;8.542;2023-03-01T02:08:39;99555.31;;;-3.73;82.31
69971;BME280;57301;50.328;8.542;2023-03-01T02:11:08;99553.16;;;-3.57;81.23
69971;BME280;57301;50.328;8.542;2023-03-01T02:13:36;99539.75;;;-3.42;81.31
69971;BME280;57301;50.328;8.542;2023-03-01T02:16:05;99544.78;;;-3.36;80.88
69971;BME280;57301;50.328;8.542;2023-03-01T02:18:34;99534.53;;;-3.42;80.94
69971;BME280;57301;50.328;8.542;2023-03-01T02:21:06;99539.28;;;-3.25;80.99
69971;BME280;57301;50.328;8.542;2023-03-01T02:23:35;99543.41;;;-3.51;81.26
69971;BME280;57301;50.328;8.542;2023-03-01T02:26:06;99539.94;;;-3.49;81.42
69971;BME280;57301;50.328;8.542;2023-03-01T02:28:36;99525.50;;;-3.30;80.91
69971;BME280;57301;50.328;8.542;2023-03-01T02:31:06;99528.31;;;-3.38;80.68
69971;BME280;57301;50.328;8.542;2023-03-01T02:33:53;99515.28;;;-3.38;80.75
69971;BME280;57301;50.328;8.542;2023-03-01T02:36:24;99513.44;;;-3.34;80.75
69971;BME280;57301;50.328;8.542;2023-03-01T02:38:53;99505.00;;;-3.44;81.47
69971;BME280;57301;50.328;8.542;2023-03-01T02:41:21;99510.31;;;-3.47;81.75
69971;BME280;57301;50.328;8.542;2023-03-01T02:43:51;99508.00;;;-3.58;82.12
69971;BME280;57301;50.328;8.542;2023-03-01T02:46:23;99504.81;;;-3.69;82.76
69971;BME280;57301;50.328;8.542;2023-03-01T02:48:56;99505.28;;;-3.86;83.73
69971;BME280;57301;50.328;8.542;2023-03-01T02:56:53;99501.38;;;-3.38;81.87
69971;BME280;57301;50.328;8.542;2023-03-01T02:59:22;99505.22;;;-3.52;81.40
69971;BME280;57301;50.328;8.542;2023-03-01T03:01:50;99493.03;;;-3.49;81.47
69971;BME280;57301;50.328;8.542;2023-03-01T03:04:18;99494.63;;;-3.45;81.48
69971;BME280;57301;50.328;8.542;2023-03-01T03:06:45;99489.41;;;-3.45;81.52
69971;BME280;57301;50.328;8.542;2023-03-01T03:09:13;99489.53;;;-3.50;81.54
69971;BME280;57301;50.328;8.542;2023-03-01T03:11:42;99486.81;;;-3.45;81.91
69971;BME280;57301;50.328;8.542;2023-03-01T03:14:11;99489.50;;;-3.48;81.45
69971;BME280;57301;50.328;8.542;2023-03-01T03:16:44;99492.09;;;-3.81;82.07
69971;BME280;57301;50.328;8.542;2023-03-01T03:19:11;99483.84;;;-3.64;81.96
69971;BME280;57301;50.328;8.542;2023-03-01T03:21:38;99480.72;;;-3.77;81.89
69971;BME280;57301;50.328;8.542;2023-03-01T03:24:05;99463.03;;;-3.66;81.25
69971;BME280;57301;50.328;8.542;2023-03-01T03:26:32;99474.19;;;-3.93;82.07
69971;BME280;57301;50.328;8.542;2023-03-01T03:28:58;99456.19;;;-3.70;82.13
69971;BME280;57301;50.328;8.542;2023-03-01T03:31:25;99459.75;;;-4.07;83.14
69971;BME280;57301;50.328;8.542;2023-03-01T03:33:51;99458.81;;;-4.02;83.39
69971;BME280;57301;50.328;8.542;2023-03-01T03:36:21;99463.47;;;-4.15;83.70
69971;BME280;57301;50.328;8.542;2023-03-01T03:38:48;99452.53;;;-3.95;83.50
69971;BME280;57301;50.328;8.542;2023-03-01T03:41:16;99457.53;;;-3.86;82.92
69971;BME280;57301;50.328;8.542;2023-03-01T03:43:42;99448.81;;;-3.87;82.73
69971;BME280;57301;50.328;8.542;2023-03-01T03:46:10;99449.66;;;-3.85;82.53
69971;BME280;57301;50.328;8.542;2023-03-01T03:48:39;99448.97;;;-3.91;82.46
69971;BME280;57301;50.328;8.542;2023-03-01T03:51:07;99451.19;;;-3.78;82.33
69971;BME280;57301;50.328;8.542;2023-03-01T03:53:35;99459.53;;;-3.97;82.72
69971;BME280;57301;50.328;8.542;2023-03-01T03:56:02;99451.69;;;-3.96;83.70
69971;BME280;57301;50.328;8.542;2023-03-01T03:58:30;99463.38;;;-3.78;82.49
69971;BME280;57301;50.328;8.542;2023-03-01T04:00:57;99448.50;;;-3.74;81.45
69971;BME280;57301;50.328;8.542;2023-03-01T04:03:25;99447.53;;;-3.70;81.06
69971;BME280;57301;50.328;8.542;2023-03-01T04:05:52;99447.56;;;-3.72;81.26
69971;BME280;57301;50.328;8.542;2023-03-01T04:08:20;99444.81;;;-3.66;80.58
69971;BME280;57301;50.328;8.542;2023-03-01T04:10:52;99451.81;;;-3.68;80.19
69971;BME280;57301;50.328;8.542;2023-03-01T04:13:22;99450.56;;;-3.86;81.24
69971;BME280;57301;50.328;8.542;2023-03-01T04:15:52;99444.44;;;-4.19;82.63
69971;BME280;57301;50.328;8.542;2023-03-01T04:18:21;99450.34;;;-4.11;82.38
69971;BME280;57301;50.328;8.542;2023-03-01T04:20:48;99449.16;;;-3.99;82.84
69971;BME280;57301;50.328;8.542;2023-03-01T04:23:19;99447.78;;;-3.80;81.80
69971;BME280;57301;50.328;8.542;2023-03-01T04:25:55;99455.06;;;-3.92;81.43
69971;BME280;57301;50.328;8.542;2023-03-01T04:28:34;99450.91;;;-3.67;80.45
69971;BME280;57301;50.328;8.542;2023-03-01T04:31:08;99448.44;;;-4.04;80.89
69971;BME280;57301;50.328;8.542;2023-03-01T04:33:43;99451.66;;;-4.30;82.55
69971;BME280;57301;50.328;8.542;2023-03-01T04:36:11;99450.34;;;-4.46;83.64
69971;BME280;57301;50.328;8.542;2023-03-01T04:38:39;99444.69;;;-4.28;83.54
69971;BME280;57301;50.328;8.542;2023-03-01T04:41:09;99442.53;;;-4.12;83.54
69971;BME280;57301;50.328;8.542;2023-03-01T04:43:36;99435.88;;;-4.24;83.64
69971;BME280;57301;50.328;8.542;2023-03-01T04:46:05;99438.22;;;-4.13;83.01
69971;BME280;57301;50.328;8.542;2023-03-01T04:48:33;99440.28;;;-4.26;83.91
69971;BME280;57301;50.328;8.542;2023-03-01T04:51:00;99440.41;;;-4.30;84.40
69971;BME280;57301;50.328;8.542;2023-03-01T04:53:27;99433.38;;;-4.27;84.51
69971;BME280;57301;50.328;8.542;2023-03-01T04:55:54;99436.25;;;-4.03;83.70
69971;BME280;57301;50.328;8.542;2023-03-01T04:58:26;99450.41;;;-4.14;83.89
69971;BME280;57301;50.328;8.542;2023-03-01T05:00:53;99439.09;;;-4.13;83.52
69971;BME280;57301;50.328;8.542;2023-03-01T05:03:20;99435.59;;;-4.12;83.23
69971;BME280;57301;50.328;8.542;2023-03-01T05:05:49;99435.94;;;-3.91;82.80
69971;BME280;57301;50.328;8.542;2023-03-01T05:08:16;99432.09;;;-3.78;81.96
69971;BME280;57301;50.328;8.542;2023-03-01T05:10:51;99420.03;;;-3.51;80.32
69971;BME280;57301;50.328;8.542;2023-03-01T05:13:20;99424.84;;;-3.67;81.35
69971;BME280;57301;50.328;8.542;2023-03-01T05:16:00;99426.50;;;-3.64;80.63
69971;BME280;57301;50.328;8.542;2023-03-01T05:18:29;99432.00;;;-3.42;80.83
69971;BME280;57301;50.328;8.542;2023-03-01T05:21:08;99435.28;;;-3.67;80.80
69971;BME280;57301;50.328;8.542;2023-03-01T05:23:36;99427.06;;;-3.53;80.61
69971;BME280;57301;50.328;8.542;2023-03-01T05:26:04;99433.88;;;-3.47;79.90
69971;BME280;57301;50.328;8.542;2023-03-01T05:28:36;99430.34;;;-3.46;80.32
69971;BME280;57301;50.328;8.542;2023-03-01T05:31:04;99431.63;;;-3.30;79.99
69971;BME280;57301;50.328;8.542;2023-03-01T05:33:36;99425.94;;;-3.15;79.35
69971;BME280;57301;50.328;8.542;2023-03-01T05:36:05;99421.50;;;-3.11;79.16
69971;BME280;57301;50.328;8.542;2023-03-01T05:38:32;99427.94;;;-2.93;78.02
69971;BME280;57301;50.328;8.542;2023-03-01T05:40:59;99427.81;;;-2.90;78.20
69971;BME280;57301;50.328;8.542;2023-03-01T05:43:25;99421.94;;;-2.97;78.06
69971;BME280;57301;50.328;8.542;2023-03-01T05:45:52;99418.59;;;-3.01;78.27
69971;BME280;57301;50.328;8.542;2023-03-01T05:48:18;99410.53;;;-2.93;78.54
69971;BME280;57301;50.328;8.542;2023-03-01T05:50:45;99417.31;;;-2.89;78.08
69971;BME280;57301;50.328;8.542;2023-03-01T05:53:16;99416.72;;;-2.97;78.34
69971;BME280;57301;50.328;8.542;2023-03-01T05:55:43;99406.28;;;-3.25;79.32
69971;BME280;57301;50.328;8.542;2023-03-01T05:58:13;99403.13;;;-3.36;79.92
69971;BME280;57301;50.328;8.542;2023-03-01T06:00:44;99408.16;;;-3.30;80.13
69971;BME280;57301;50.328;8.542;2023-03-01T06:03:12;99409.38;;;-3.12;79.68
69971;BME280;57301;50.328;8.542;2023-03-01T06:05:40;99409.13;;;-3.05;79.21
69971;BME280;57301;50.328;8.542;2023-03-01T06:08:08;99412.53;;;-3.03;78.85
69971;BME280;57301;50.328;8.542;2023-03-01T06:10:35;99406.41;;;-3.30;79.80
69971;BME280;57301;50.328;8.542;2023-03-01T06:13:02;99416.34;;;-2.85;78.97
69971;BME280;57301;50.328;8.542;2023-03-01T06:15:29;99415.56;;;-3.16;79.43
69971;BME280;57301;50.328;8.542;2023-03-01T06:17:55;99417.81;;;-3.04;79.51
69971;BME280;57301;50.328;8.542;2023-03-01T06:20:27;99409.25;;;-3.09;79.35
69971;BME280;57301;50.328;8.542;2023-03-01T06:22:53;99428.31;;;-3.06;79.37
69971;BME280;57301;50.328;8.542;2023-03-01T06:25:22;99430.72;;;-3.00;78.66
69971;BME280;57301;50.328;8.542;2023-03-01T06:27:49;99428.91;;;-2.98;78.93
69971;BME280;57301;50.328;8.542;2023-03-01T06:30:17;99423.53;;;-2.63;78.25
69971;BME280;57301;50.328;8.542;2023-03-01T06:32:44;99420.06;;;-2.37;77.21
69971;BME280;57301;50.328;8.542;2023-03-01T06:35:12;99414.75;;;-2.09;75.94
69971;BME280;57301;50.328;8.542;2023-03-01T06:37:40;99409.38;;;-2.05;75.52
69971;BME280;57301;50.328;8.542;2023-03-01T06:40:08;99418.97;;;-2.05;75.19
69971;BME280;57301;50.328;8.542;2023-03-01T06:42:40;99416.22;;;-2.01;75.04
69971;BME280;57301;50.328;8.542;2023-03-01T06:45:08;99414.31;;;-1.97;74.74
69971;BME280;57301;50.328;8.542;2023-03-01T06:47:35;99415.19;;;-1.72;74.40
69971;BME280;57301;50.328;8.542;2023-03-01T06:50:02;99413.44;;;-1.71;74.38
69971;BME280;57301;50.328;8.542;2023-03-01T06:52:29;99418.59;;;-1.70;74.36
69971;BME280;57301;50.328;8.542;2023-03-01T06:54:56;99405.81;;;-1.54;73.77
69971;BME280;57301;50.328;8.542;2023-03-01T06:57:22;99397.75;;;-1.24;72.41
69971;BME280;57301;50.328;8.542;2023-03-01T06:59:49;99396.28;;;-1.31;73.37
69971;BME280;57301;50.328;8.542;2023-03-01T07:02:16;99400.59;;;-1.07;72.74
69971;BME280;57301;50.328;8.542;2023-03-01T07:04:42;99396.09;;;-0.82;71.74
69971;BME280;57301;50.328;8.542;2023-03-01T07:07:09;99395.78;;;-0.52;70.85
69971;BME280;57301;50.328;8.542;2023-03-01T07:09:35;99397.88;;;-0.18;69.87
69971;BME280;57301;50.328;8.542;2023-03-01T07:12:02;99388.53;;;0.36;68.59
69971;BME280;57301;50.328;8.542;2023-03-01T07:14:29;99401.09;;;1.06;65.88
69971;BME280;57301;50.328;8.542;2023-03-01T07:16:56;99394.88;;;1.63;63.31
69971;BME280;57301;50.328;8.542;2023-03-01T07:19:23;99391.75;;;2.41;60.89
69971;BME280;57301;50.328;8.542;2023-03-01T07:21:50;99389.75;;;2.95;58.09
69971;BME280;57301;50.328;8.542;2023-03-01T07:24:16;99384.53;;;3.57;56.36
69971;BME280;57301;50.328;8.542;2023-03-01T07:26:43;99386.06;;;4.05;55.75
69971;BME280;57301;50.328;8.542;2023-03-01T07:29:10;99384.06;;;4.39;53.30
69971;BME280;57301;50.328;8.542;2023-03-01T07:31:36;99386.63;;;4.69;53.10
69971;BME280;57301;50.328;8.542;2023-03-01T07:34:03;99378.41;;;5.29;51.87
69971;BME280;57301;50.328;8.542;2023-03-01T07:36:29;99386.50;;;5.94;49.68
69971;BME280;57301;50.328;8.542;2023-03-01T07:38:56;99375.53;;;5.86;49.32
69971;BME280;57301;50.328;8.542;2023-03-01T07:41:24;99381.56;;;6.15;48.36
69971;BME280;57301;50.328;8.542;2023-03-01T07:43:51;99382.00;;;6.34;47.97
69971;BME280;57301;50.328;8.542;2023-03-01T07:46:17;99375.13;;;6.57;48.17
69971;BME280;57301;50.328;8.542;2023-03-01T07:48:45;99386.22;;;6.24;47.42
69971;BME280;57301;50.328;8.542;2023-03-01T07:51:12;99383.09;;;6.44;47.04
69971;BME280;57301;50.328;8.542;2023-03-01T07:53:39;99389.22;;;6.45;47.03
69971;BME280;57301;50.328;8.542;2023-03-01T07:56:11;99390.97;;;6.19;46.80
69971;BME280;57301;50.328;8.542;2023-03-01T07:58:39;99388.88;;;6.24;47.04
69971;BME280;57301;50.328;8.542;2023-03-01T08:01:08;99385.50;;;6.22;47.63
69971;BME280;57301;50.328;8.542;2023-03-01T08:03:36;99378.78;;;5.91;47.79
69971;BME280;57301;50.328;8.542;2023-03-01T08:06:05;99379.91;;;6.39;48.55
69971;BME280;57301;50.328;8.542;2023-03-01T08:08:32;99383.44;;;7.02;45.46
69971;BME280;57301;50.328;8.542;2023-03-01T08:11:00;99375.41;;;7.51;44.45
69971;BME280;57301;50.328;8.542;2023-03-01T08:13:28;99375.81;;;6.85;45.13
69971;BME280;57301;50.328;8.542;2023-03-01T08:16:03;99380.72;;;6.65;45.51
69971;BME280;57301;50.328;8.542;2023-03-01T08:18:31;99371.28;;;6.61;46.07
69971;BME280;57301;50.328;8.542;2023-03-01T08:21:05;99369.53;;;6.98;46.46
69971;BME280;57301;50.328;8.542;2023-03-01T08:23:33;99378.34;;;7.36;45.10
69971;BME280;57301;50.328;8.542;2023-03-01T08:26:06;99367.66;;;7.61;44.46
69971;BME280;57301;50.328;8.542;2023-03-01T08:28:33;99372.25;;;7.70;44.69
69971;BME280;57301;50.328;8.542;2023-03-01T08:31:00;99367.22;;;7.78;44.16
69971;BME280;57301;50.328;8.542;2023-03-01T08:33:27;99368.94;;;7.79;43.32
69971;BME280;57301;50.328;8.542;2023-03-01T08:36:02;99369.78;;;7.80;44.14
69971;BME280;57301;50.328;8.542;2023-03-01T08:38:29;99374.19;;;7.68;44.71
69971;BME280;57301;50.328;8.542;2023-03-01T08:40:59;99368.41;;;7.98;44.96
69971;BME280;57301;50.328;8.542;2023-03-01T08:43:25;99372.78;;;8.11;43.50
69971;BME280;57301;50.328;8.542;2023-03-01T08:45:52;99361.94;;;7.90;44.46
69971;BME280;57301;50.328;8.542;2023-03-01T08:48:18;99362.66;;;7.80;45.26
69971;BME280;57301;50.328;8.542;2023-03-01T08:50:46;99359.69;;;7.61;43.54
69971;BME280;57301;50.328;8.542;2023-03-01T08:53:12;99344.19;;;8.25;44.42
69971;BME280;57301;50.328;8.542;2023-03-01T08:55:39;99337.84;;;8.61;42.27
69971;BME280;57301;50.328;8.542;2023-03-01T08:58:05;99338.25;;;7.75;42.61
69971;BME280;57301;50.328;8.542;2023-03-01T09:00:32;99328.47;;;7.76;43.33
69971;BME280;57301;50.328;8.542;2023-03-01T09:03:01;99333.78;;;7.76;43.86
69971;BME280;57301;50.328;8.542;2023-03-01T09:05:27;99336.19;;;7.79;44.45
69971;BME280;57301;50.328;8.542;2023-03-01T09:07:54;99338.59;;;7.71;44.14
69971;BME280;57301;50.328;8.542;2023-03-01T09:10:20;99337.69;;;8.29;43.57
69971;BME280;57301;50.328;8.542;2023-03-01T09:12:47;99338.19;;;8.46;43.73
69971;BME280;57301;50.328;8.542;2023-03-01T09:15:13;99338.94;;;8.01;42.62
69971;BME280;57301;50.328;8.542;2023-03-01T09:17:40;99332.56;;;8.26;42.06
69971;BME280;57301;50.328;8.542;2023-03-01T09:20:07;99333.63;;;8.01;42.73
69971;BME280;57301;50.328;8.542;2023-03-01T09:22:34;99329.81;;;8.17;43.49
69971;BME280;57301;50.328;8.542;2023-03-01T09:25:01;99328.66;;;8.43;41.84
69971;BME280;57301;50.328;8.542;2023-03-01T09:27:27;99333.03;;;8.78;41.40
69971;BME280;57301;50.328;8.542;2023-03-01T09:29:54;99331.31;;;8.77;41.33
69971;BME280;57301;50.328;8.542;2023-03-01T09:32:22;99312.72;;;8.54;40.68
69971;BME280;57301;50.328;8.542;2023-03-01T09:34:48;99308.91;;;8.23;42.38
69971;BME280;57301;50.328;8.542;2023-03-01T09:37:30;99317.03;;;8.89;41.81
69971;BME280;57301;50.328;8.542;2023-03-01T09:39:57;99314.03;;;8.49;42.61
69971;BME280;57301;50.328;8.542;2023-03-01T09:42:24;99307.19;;;9.12;41.32
69971;BME280;57301;50.328;8.542;2023-03-01T09:44:56;99301.09;;;9.32;40.56
69971;BME280;57301;50.328;8.542;2023-03-01T09:47:29;99294.06;;;9.31;39.97
69971;BME280;57301;50.328;8.542;2023-03-01T09:50:17;99290.72;;;9.82;38.50
69971;BME280;57301;50.328;8.542;2023-03-01T09:55:38;99297.81;;;10.65;36.67
69971;BME280;57301;50.328;8.542;2023-03-01T09:58:36;99294.34;;;10.84;36.49
69971;BME280;57301;50.328;8.542;2023-03-01T10:01:36;99298.94;;;11.22;35.70
69971;BME280;57301;50.328;8.542;2023-03-01T10:07:40;99287.31;;;12.01;34.26
69971;BME280;57301;50.328;8.542;2023-03-01T10:09:46;99292.13;;;11.97;33.12
69971;BME280;57301;50.328;8.542;2023-03-01T10:12:35;99288.44;;;12.45;32.10
69971;BME280;57301;50.328;8.542;2023-03-01T10:15:07;99277.56;;;13.39;31.65
69971;BME280;57301;50.328;8.542;2023-03-01T10:17:51;99284.91;;;14.16;30.63
69971;BME280;57301;50.328;8.542;2023-03-01T10:21:01;99281.81;;;14.97;28.92
69971;BME280;57301;50.328;8.542;2023-03-01T10:23:19;99280.97;;;14.29;30.01
69971;BME280;57301;50.328;8.542;2023-03-01T10:29:00;99271.59;;;14.93;28.94
69971;BME280;57301;50.328;8.542;2023-03-01T10:31:48;99262.75;;;14.40;28.87
69971;BME280;57301;50.328;8.542;2023-03-01T10:36:56;99261.94;;;15.24;27.78
69971;BME280;57301;50.328;8.542;2023-03-01T10:39:25;99255.03;;;15.05;27.53
69971;BME280;57301;50.328;8.542;2023-03-01T10:42:01;99254.94;;;14.81;28.16
69971;BME280;57301;50.328;8.542;2023-03-01T10:44:45;99254.91;;;15.23;28.24
69971;BME280;57301;50.328;8.542;2023-03-01T10:47:20;99254.75;;;15.57;27.60
69971;BME280;57301;50.328;8.542;2023-03-01T10:49:53;99249.59;;;15.80;27.01
69971;BME280;57301;50.328;8.542;2023-03-01T10:52:24;99254.13;;;15.80;27.05
69971;BME280;57301;50.328;8.542;2023-03-01T10:57:41;99240.28;;;16.24;26.44
69971;BME280;57301;50.328;8.542;2023-03-01T11:00:16;99238.41;;;15.10;27.69
69971;BME280;57301;50.328;8.542;2023-03-01T11:05:26;99236.44;;;15.28;27.90
69971;BME280;57301;50.328;8.542;2023-03-01T11:07:58;99232.06;;;15.44;28.13
69971;BME280;57301;50.328;8.542;2023-03-01T11:10:27;99221.19;;;16.02;27.44
69971;BME280;57301;50.328;8.542;2023-03-01T11:13:08;99215.63;;;16.59;26.64
69971;BME280;57301;50.328;8.542;2023-03-01T11:15:35;99206.38;;;16.54;26.37
69971;BME280;57301;50.328;8.542;2023-03-01T11:18:02;99223.63;;;16.28;26.72
69971;BME280;57301;50.328;8.542;2023-03-01T11:20:39;99204.53;;;15.91;26.96
69971;BME280;57301;50.328;8.542;2023-03-01T11:23:10;99207.13;;;16.31;26.79
69971;BME280;57301;50.328;8.542;2023-03-01T11:26:01;99197.75;;;16.27;27.14
69971;BME280;57301;50.328;8.542;2023-03-01T11:28:30;99188.22;;;16.08;27.12
69971;BME280;57301;50.328;8.542;2023-03-01T11:31:06;99181.03;;;16.40;26.65
69971;BME280;57301;50.328;8.542;2023-03-01T11:33:47;99192.97;;;17.39;26.01
69971;BME280;57301;50.328;8.542;2023-03-01T11:36:36;99179.38;;;17.32;25.54
69971;BME280;57301;50.328;8.542;2023-03-01T11:39:53;99188.94;;;17.58;24.47
69971;BME280;57301;50.328;8.542;2023-03-01T11:42:37;99185.94;;;16.28;26.00
69971;BME280;57301;50.328;8.542;2023-03-01T11:45:10;99185.78;;;16.30;26.96
69971;BME280;57301;50.328;8.542;2023-03-01T11:47:59;99176.56;;;17.26;26.05
69971;BME280;57301;50.328;8.542;2023-03-01T11:50:39;99182.00;;;17.40;25.84
69971;BME280;57301;50.328;8.542;2023-03-01T11:53:23;99179.91;;;17.88;24.73
69971;BME280;57301;50.328;8.542;2023-03-01T11:56:13;99170.13;;;17.27;24.46
69971;BME280;57301;50.328;8.542;2023-03-01T11:58:49;99164.97;;;17.63;24.70
69971;BME280;57301;50.328;8.542;2023-03-01T12:07:20;99154.41;;;16.06;25.55
69971;BME280;57301;50.328;8.542;2023-03-01T12:09:54;99156.13;;;16.46;26.08
69971;BME280;57301;50.328;8.542;2023-03-01T12:12:28;99145.31;;;18.07;24.04
69971;BME280;57301;50.328;8.542;2023-03-01T12:26:07;99118.31;;;17.92;23.58
69971;BME280;57301;50.328;8.542;2023-03-01T12:29:02;99112.44;;;17.73;24.13
69971;BME280;57301;50.328;8.542;2023-03-01T12:37:00;99091.13;;;19.59;22.14
69971;BME280;57301;50.328;8.542;2023-03-01T12:48:04;99101.22;;;18.50;23.33
69971;BME280;57301;50.328;8.542;2023-03-01T12:50:41;99092.72;;;19.04;22.50
69971;BME280;57301;50.328;8.542;2023-03-01T12:53:32;99085.75;;;18.95;22.03
69971;BME280;57301;50.328;8.542;2023-03-01T12:56:08;99091.56;;;17.67;23.40
69971;BME280;57301;50.328;8.542;2023-03-01T12:59:17;99081.50;;;17.61;23.42
69971;BME280;57301;50.328;8.542;2023-03-01T13:04:50;99074.28;;;18.36;24.11
69971;BME280;57301;50.328;8.542;2023-03-01T13:07:39;99069.94;;;18.92;22.89
69971;BME280;57301;50.328;8.542;2023-03-01T13:10:29;99074.72;;;17.51;24.41
69971;BME280;57301;50.328;8.542;2023-03-01T13:13:12;99064.63;;;18.12;24.41
69971;BME280;57301;50.328;8.542;2023-03-01T13:15:39;99074.72;;;17.65;23.56
69971;BME280;57301;50.328;8.542;2023-03-01T13:28:40;99065.78;;;18.39;22.80
69971;BME280;57301;50.328;8.542;2023-03-01T13:31:38;99052.47;;;18.95;23.17
69971;BME280;57301;50.328;8.542;2023-03-01T13:34:01;99048.00;;;19.09;21.63
69971;BME280;57301;50.328;8.542;2023-03-01T13:39:49;99045.28;;;17.93;23.33
69971;BME280;57301;50.328;8.542;2023-03-01T13:41:54;99039.94;;;18.51;22.25
69971;BME280;57301;50.328;8.542;2023-03-01T13:44:29;99031.28;;;18.56;21.97
69971;BME280;57301;50.328;8.542;2023-03-01T13:47:01;99029.22;;;18.21;22.75
69971;BME280;57301;50.328;8.542;2023-03-01T13:49:41;99031.66;;;18.16;22.99
69971;BME280;57301;50.328;8.542;2023-03-01T13:55:05;99014.56;;;18.88;22.04
69971;BME280;57301;50.328;8.542;2023-03-01T13:57:34;99017.47;;;17.93;22.39
69971;BME280;57301;50.328;8.542;2023-03-01T14:00:03;99013.44;;;17.59;22.32
69971;BME280;57301;50.328;8.542;2023-03-01T14:02:31;99022.97;;;18.21;22.50
69971;BME280;57301;50.328;8.542;2023-03-01T14:04:59;99017.97;;;17.14;22.96
69971;BME280;57301;50.328;8.542;2023-03-01T14:07:27;99015.88;;;18.35;22.70
69971;BME280;57301;50.328;8.542;2023-03-01T14:10:03;99012.13;;;17.26;24.27
69971;BME280;57301;50.328;8.542;2023-03-01T14:12:58;99023.59;;;16.05;25.57
69971;BME280;57301;50.328;8.542;2023-03-01T14:16:16;99024.97;;;16.55;24.12
69971;BME280;57301;50.328;8.542;2023-03-01T14:21:39;99007.66;;;17.33;23.92
69971;BME280;57301;50.328;8.542;2023-03-01T14:24:18;99014.69;;;18.22;22.70
69971;BME280;57301;50.328;8.542;2023-03-01T14:26:45;99008.59;;;17.40;23.10
69971;BME280;57301;50.328;8.542;2023-03-01T14:29:35;99004.22;;;17.98;22.67
69971;BME280;57301;50.328;8.542;2023-03-01T14:34:45;99007.78;;;12.87;28.76
69971;BME280;57301;50.328;8.542;2023-03-01T14:37:29;98999.56;;;12.09;31.24
69971;BME280;57301;50.328;8.542;2023-03-01T14:39:59;98996.66;;;11.66;32.21
69971;BME280;57301;50.328;8.542;2023-03-01T14:42:31;98994.97;;;11.37;33.23